ADDS METAR Data INFO
IDs: Format: Raw Decoded Include TAF

Data at: 1340 UTC 25 Feb 2018

KCNW 251255Z 02005KT 7SM BKN050 09/09 A3004
KCNW 250455Z 00000KT 7SM SCT075 12/12 A2999
KCNW 250355Z 00000KT 10SM OVC050 12/12 A2999
KCNW 250255Z 00000KT 10SM SCT048 14/12 A2997
KCNW 250155Z 36003KT 10SM BKN044 14/12 A2996
KCNW 250055Z 00000KT 10SM OVC042 15/12 A2994
KCNW 242355Z 02004KT 10SM SCT060 BKN075 15/12 A2980
KCNW 242255Z 36007KT 10SM -RA OVC029 15/14 A2987
KCNW 242155Z 35012G18KT 10SM BKN027 17/14 A2985
KCNW 242055Z 34015G22KT 10SM SCT025 BKN034 23/17 A2983
KCNW 241955Z 20017KT 10SM SCT024 BKN030 24/19 A2983
KCNW 241855Z 13011KT 10SM -RA SCT022 BKN0029 23/20 A2984
KCNW 241755Z 13003KT 7SM -RA BKN009 OVC017 21/19 A2987
KCNW 241655Z 13003KT 7SM -RA BKN009 OVC017 20/20 A2987
KCNW 241555Z 13003KT 2 1/2SM -RA OVC017 18/18 A2985
KCNW 241455Z 13003KT 2 1/2SM -RA BKN001 OVC012 14/14 A2985
KCNW 241355Z 30005KT 2 1/2SM -RA OVC001 13/13 A2988
KCNW 241255Z 30005KT 1/2SM -RA OVC001 13/13 A2985
KCNW 240455Z 00000KT 3/4SM BR OVC001 13/13 A3002
KCNW 240355Z VRB03KT 2SM BR OVC003 14/14 A3004
KCNW 240255Z 00000KT 3SM BR OVC003 14/14 A3004
KCNW 240155Z 00000KT 4SM BR OVC003 14/14 A3003